logo dgac
Martes 21 de Septiembre del 2021
Buscar por aerodromo o helipuerto
Ingrese nombre de aeródromo, localidad o designador OACI:

Aeródromo: Chile Chico (PUB) (SCCC)

Ubicación: Chile Chico, XI Región, Chile (46º 34' 58'' S, 71º 41' 12'' W) Ver ubicación en el mapa

Pistas

Orientación Dimensión Pendiente Superficie Resistencia APCH THR RWY PAPI
12/30 1200 x 23 0,70 ASPH 20.000 Kg No No No No
Horas de operación HJ
Elevación 326 m / 1070 ft
Otra Información Adm : D.G.A.C.
Uso : PUB
Ubicado : 7 km SE Chile Chico
TEL 672411284
email : aro.chilechico@dgac.gob.cl

Otra información ver AIP-Chile Volumen I AD 3.9-3.7-C

CCCM/FCCV Descargar
andera de Chile
Mapa de Chile Chico (PUB) (SCCC)

Último METAR

METAR SCCC 211000Z AUTO 20005KT CAVOK 00/M02 Q1023

Último TAF

No hay tafs registrados para este aeródromo

Últimas fotos cámaras

Imagen aerodromo Chile Chico (PUB) (SCCC) N-Oeste tomada el 21-09-2021 11:16:38 Imagen aerodromo Chile Chico (PUB) (SCCC) S-Este tomada el 21-09-2021 11:16:15

Último NOTAM

C4128/21 NOTAMN Q)SCTZ/QMRLX/IV/NBO/A/000/999/4635S07141W005 A)SCCC B)2109151130 C)2110152359 E)RWY 12/30 CTN DEBIDO A WIP EN STP AMBOS COSTADOS HOMBRES Y MAQUINARIA